logo
Search for airport 
image banner adimage banner adimage banner ad
image banner ad

ED3029 - Seeheimer Berg

Located in , Germany

ICAO - , IATA -

Data provided by Airmate  

General information

Coordinates: N48°19'44" E9°4'14"
Elevation is 2726 feet MSL.
 
View others Airports in Baden-Württemberg

Operational data

Special qualification required
Current time UTC:
Current local time:
Weather at : EDDS - Stuttgart ( 42 km )
METAR: EDDS 220350Z AUTO VRB02KT CAVOK 13/11 Q1016
TAF: TAF EDDS 212300Z 2200/2224 22004KT 9999 FEW040 TEMPO 2211/2217 SHRA BKN030TCU PROB30 TEMPO 2211/2214 4000 TSRA BKN014CB
View NOTAMs / SUP AIP / TFR affecting this airport [VIEW]
Communications frequencies: [VIEW]

Runways:

Airport contact information

Address: Germany

Satellite view of ED3029